Time;durP1;ratioP1;P1;durP2;ratioP2;P2;SDS_P1;SDS_P2;PMS_P1;PMS_P2;Temp;Humidity;BMP_temperature;BMP_pressure;BME280_temperature;BME280_humidity;BME280_pressure;Samples;Min_cycle;Max_cycle;Signal;HPM_P1;HPM_P2
2021/12/10 00:01:39;;;;;;;30.08;15.18;;;4.80;99.90;;;;;;6220573;22;20032;-92
2021/12/10 00:05:15;;;;;;;29.67;14.07;;;4.80;99.90;;;;;;6238303;22;20015;-94
2021/12/10 00:09:06;;;;;;;;;;;;;;;;;;;;;
2021/12/10 00:19:28;;;;;;;35.22;16.02;;;4.70;99.90;;;;;;6287478;22;20501;-92
2021/12/10 00:22:51;;;;;;;;;;;;;;;;;;;;;
2021/12/10 00:26:07;;;;;;;44.15;17.85;;;4.80;99.90;;;;;;6213207;23;20020;-93
2021/12/10 00:29:09;;;;;;;38.05;16.58;;;4.80;99.90;;;;;;6209007;23;20016;-94
2021/12/10 00:32:14;;;;;;;30.90;14.85;;;4.70;99.90;;;;;;6229343;23;20054;-92
2021/12/10 00:35:14;;;;;;;32.80;15.82;;;4.70;99.90;;;;;;6227081;23;20023;-93
2021/12/10 00:38:55;;;;;;;;;;;;;;;;;;;;;
2021/12/10 00:43:03;;;;;;;32.53;16.10;;;4.70;99.90;;;;;;6243305;22;20079;-92
2021/12/10 00:46:45;;;;;;;30.23;15.60;;;4.70;99.90;;;;;;6267137;22;20047;-92
2021/12/10 00:50:22;;;;;;;28.80;14.85;;;4.50;99.90;;;;;;6147762;23;20096;-92
2021/12/10 00:53:47;;;;;;;28.27;14.43;;;4.70;99.90;;;;;;6111806;23;20389;-91
2021/12/10 00:57:08;;;;;;;;;;;;;;;;;;;;;
2021/12/10 01:00:42;;;;;;;34.65;16.50;;;4.60;99.90;;;;;;6112115;23;20013;-92
2021/12/10 01:14:58;;;;;;;26.95;14.70;;;4.50;99.90;;;;;;6287152;22;20038;-92
2021/12/10 01:25:39;;;;;;;27.23;13.48;;;4.60;99.90;;;;;;6233911;23;20031;-91
2021/12/10 01:28:52;;;;;;;20.60;11.50;;;4.50;99.90;;;;;;6233533;23;20103;-93
2021/12/10 01:32:33;;;;;;;21.70;11.00;;;4.50;99.90;;;;;;6255563;22;20016;-93
2021/12/10 01:36:25;;;;;;;18.35;10.27;;;4.50;99.90;;;;;;6233984;23;20036;-91
2021/12/10 01:39:57;;;;;;;20.52;11.50;;;4.50;99.90;;;;;;6259808;23;20040;-93
2021/12/10 01:47:13;;;;;;;17.33;9.43;;;4.60;99.90;;;;;;6200919;23;20097;-93
2021/12/10 01:50:36;;;;;;;18.98;8.50;;;4.70;99.90;;;;;;6214687;22;20012;-92
2021/12/10 01:53:44;;;;;;;18.52;8.82;;;4.60;99.90;;;;;;6212114;23;20087;-93
2021/12/10 01:56:55;;;;;;;;;;;;;;;;;;;;;
2021/12/10 02:03:23;;;;;;;17.90;9.35;;;4.60;99.90;;;;;;6234604;23;20027;-92
2021/12/10 02:06:35;;;;;;;18.30;8.50;;;4.60;99.90;;;;;;6240917;23;20039;-91
2021/12/10 02:15:53;;;;;;;12.63;8.55;;;4.40;99.90;;;;;;6283019;22;20073;-92
2021/12/10 02:19:00;;;;;;;20.90;9.35;;;4.50;99.90;;;;;;6236460;22;20020;-93
2021/12/10 02:25:48;;;;;;;19.48;8.15;;;4.50;99.90;;;;;;6227826;23;20098;-94
2021/12/10 02:33:12;;;;;;;17.33;8.32;;;4.40;99.90;;;;;;6225569;23;20009;-94
2021/12/10 02:36:41;;;;;;;20.45;9.00;;;4.40;99.90;;;;;;6171968;23;20124;-94
2021/12/10 02:39:47;;;;;;;21.35;9.10;;;4.30;99.90;;;;;;6207006;23;20020;-94
2021/12/10 02:54:49;;;;;;;20.13;7.68;;;4.50;99.90;;;;;;6162147;23;20032;-94
2021/12/10 03:04:56;;;;;;;15.05;8.05;;;4.60;99.90;;;;;;6286674;22;20525;-91
2021/12/10 03:08:55;;;;;;;;;;;;;;;;;;;;;
2021/12/10 03:12:26;;;;;;;;;;;;;;;;;;;;;
2021/12/10 03:15:45;;;;;;;22.90;10.65;;;4.50;99.90;;;;;;6258628;23;20044;-91
2021/12/10 03:18:52;;;;;;;15.45;8.60;;;4.40;99.90;;;;;;6231286;23;20020;-91
2021/12/10 03:21:39;;;;;;;18.02;8.35;;;4.20;99.90;;;;;;6230718;23;20016;-92
2021/12/10 03:24:38;;;;;;;19.25;9.93;;;4.30;99.90;;;;;;6220549;23;20441;-93
2021/12/10 03:27:35;;;;;;;14.90;7.40;;;4.20;99.90;;;;;;6229477;23;20023;-92
2021/12/10 03:30:44;;;;;;;14.50;6.82;;;4.30;99.90;;;;;;6231988;23;20028;-93
2021/12/10 03:34:08;;;;;;;15.10;7.88;;;4.30;99.90;;;;;;6233447;23;20031;-91
2021/12/10 03:41:05;;;;;;;;;;;;;;;;;;;;;
2021/12/10 03:44:30;;;;;;;17.77;8.93;;;4.40;99.90;;;;;;6230344;23;20016;-92
2021/12/10 03:47:42;;;;;;;18.00;7.97;;;4.30;99.90;;;;;;6257471;23;20066;-92
2021/12/10 03:51:10;;;;;;;14.55;7.45;;;4.40;99.90;;;;;;6229021;23;20032;-92
2021/12/10 03:54:02;;;;;;;15.82;9.35;;;4.40;99.90;;;;;;6230950;23;20020;-93
2021/12/10 03:57:05;;;;;;;15.52;8.20;;;4.30;99.90;;;;;;6236611;23;20387;-92
2021/12/10 04:00:16;;;;;;;12.65;7.55;;;4.30;99.90;;;;;;6230137;23;20020;-91
2021/12/10 04:03:33;;;;;;;14.18;7.43;;;4.30;99.90;;;;;;6257397;23;20035;-91
2021/12/10 04:10:42;;;;;;;9.68;6.25;;;4.30;99.90;;;;;;6216909;22;20024;-94
2021/12/10 04:17:30;;;;;;;11.20;6.20;;;4.30;99.90;;;;;;6231529;23;20020;-91
2021/12/10 04:20:28;;;;;;;10.48;6.25;;;4.30;99.90;;;;;;6227642;23;20099;-92
2021/12/10 04:23:24;;;;;;;11.68;6.68;;;4.10;99.90;;;;;;6225431;23;20078;-92
2021/12/10 04:26:49;;;;;;;18.27;6.55;;;4.20;99.90;;;;;;6147664;23;20092;-92
2021/12/10 04:29:56;;;;;;;16.83;7.63;;;4.20;99.90;;;;;;6116487;23;20021;-95
2021/12/10 04:32:36;;;;;;;13.23;5.82;;;4.10;99.90;;;;;;6161361;23;20013;-92
2021/12/10 04:35:35;;;;;;;14.65;6.57;;;4.20;99.90;;;;;;6114609;23;20014;-92
2021/12/10 04:38:59;;;;;;;20.23;7.25;;;4.20;99.90;;;;;;6163237;23;20021;-92
2021/12/10 04:41:54;;;;;;;9.85;5.65;;;4.10;99.90;;;;;;6160996;23;20096;-93
2021/12/10 04:45:39;;;;;;;10.40;5.95;;;4.10;99.90;;;;;;6135552;23;20104;-94
2021/12/10 04:49:02;;;;;;;7.05;4.65;;;4.20;99.90;;;;;;6136030;23;20017;-92
2021/12/10 04:51:52;;;;;;;12.65;5.53;;;4.20;99.90;;;;;;6228662;23;20044;-92
2021/12/10 04:54:33;;;;;;;8.85;4.68;;;4.00;99.90;;;;;;6194032;23;20083;-93
2021/12/10 04:57:30;;;;;;;14.73;4.93;;;4.10;99.90;;;;;;6233214;23;20024;-94
2021/12/10 05:00:17;;;;;;;8.70;4.82;;;4.10;99.90;;;;;;6225740;23;20020;-92
2021/12/10 05:03:32;;;;;;;9.18;4.68;;;4.20;99.90;;;;;;6252160;23;20031;-94
2021/12/10 05:06:27;;;;;;;12.52;4.72;;;4.20;99.90;;;;;;6231158;23;20519;-92
2021/12/10 05:09:24;;;;;;;9.02;4.50;;;4.10;99.90;;;;;;6230270;23;20018;-91
2021/12/10 05:12:33;;;;;;;8.60;4.10;;;4.00;99.90;;;;;;6227707;22;20027;-91
2021/12/10 05:15:02;;;;;;;6.32;4.28;;;4.00;99.90;;;;;;6196641;23;20050;-92
2021/12/10 05:17:38;;;;;;;8.27;3.45;;;4.00;99.90;;;;;;6198181;23;20399;-91
2021/12/10 05:20:28;;;;;;;12.85;4.03;;;4.10;99.90;;;;;;6220782;23;20016;-93
2021/12/10 05:22:59;;;;;;;9.43;4.43;;;4.20;99.90;;;;;;6159427;23;20021;-91
2021/12/10 05:25:42;;;;;;;9.85;4.65;;;4.20;99.90;;;;;;6202525;23;20017;-93
2021/12/10 05:28:09;;;;;;;10.60;3.55;;;4.10;99.90;;;;;;6197774;23;20028;-91
2021/12/10 05:36:01;;;;;;;7.60;3.70;;;4.00;99.90;;;;;;6154371;23;20035;-93
2021/12/10 05:39:17;;;;;;;;;;;4.10;99.90;;;;;;6215021;23;20024;-90
2021/12/10 05:43:19;;;;;;;8.05;3.55;;;4.20;99.90;;;;;;6163239;23;19919;-90
2021/12/10 05:46:32;;;;;;;8.13;3.50;;;4.20;99.90;;;;;;6167698;23;20131;-92
2021/12/10 05:49:38;;;;;;;4.03;2.72;;;4.10;99.90;;;;;;6185129;23;20027;-90
2021/12/10 05:53:46;;;;;;;5.80;3.58;;;4.20;99.90;;;;;;6202575;23;20024;-90
2021/12/10 06:12:21;;;;;;;8.60;2.97;;;4.20;99.90;;;;;;6258818;22;20355;-90
2021/12/10 06:16:53;;;;;;;;;;;;;;;;;;;;;
2021/12/10 06:19:56;;;;;;;5.55;3.00;;;4.20;99.90;;;;;;6154078;23;20327;-91
2021/12/10 06:23:56;;;;;;;;;;;;;;;;;;;;;
2021/12/10 06:28:45;;;;;;;;;;;;;;;;;;;;;
2021/12/10 06:32:30;;;;;;;;;;;;;;;;;;;;;
2021/12/10 06:36:49;;;;;;;;;;;;;;;;;;;;;
2021/12/10 07:34:07;;;;;;;5.95;2.50;;;4.30;99.90;;;;;;6066482;23;20021;-92
2021/12/10 07:38:09;;;;;;;;;;;;;;;;;;;;;
2021/12/10 07:49:13;;;;;;;;;;;;;;;;;;;;;
2021/12/10 07:56:17;;;;;;;11.00;3.33;;;4.30;99.90;;;;;;6277303;22;20086;-89
2021/12/10 08:00:30;;;;;;;7.43;3.40;;;4.30;99.90;;;;;;6168319;23;20103;-91
2021/12/10 08:20:54;;;;;;;;;;;;;;;;;;;;;
2021/12/10 14:29:21;;;;;;;4.13;2.28;;;4.90;99.90;;;;;;6216993;23;20048;-91
2021/12/10 15:12:13;;;;;;;8.02;3.25;;;5.00;99.90;;;;;;6173050;23;20037;-95
2021/12/10 15:44:31;;;;;;;5.95;2.13;;;5.00;99.90;;;;;;6189880;23;20324;-93
2021/12/10 15:51:32;;;;;;;3.50;1.65;;;4.90;99.90;;;;;;6091191;23;20405;-92
2021/12/10 15:54:19;;;;;;;6.63;1.77;;;4.90;99.90;;;;;;6111612;23;20450;-93
2021/12/10 15:57:03;;;;;;;6.82;2.05;;;5.00;99.90;;;;;;6107138;23;20021;-93
2021/12/10 15:59:39;;;;;;;2.20;1.45;;;5.00;99.90;;;;;;6131654;23;20017;-94
2021/12/10 16:02:20;;;;;;;5.70;3.17;;;5.00;99.90;;;;;;6131379;23;20017;-93
2021/12/10 16:05:16;;;;;;;7.40;3.42;;;4.90;99.90;;;;;;6109025;23;20017;-93
2021/12/10 16:12:02;;;;;;;3.22;1.85;;;4.80;99.90;;;;;;5995400;23;20031;-94
2021/12/10 16:18:22;;;;;;;5.32;2.30;;;4.70;99.90;;;;;;6158918;23;20022;-93
2021/12/10 16:21:03;;;;;;;6.50;3.30;;;4.70;99.90;;;;;;6110002;23;20117;-93
2021/12/10 16:23:58;;;;;;;13.70;3.85;;;4.70;99.90;;;;;;6108775;23;20086;-94
2021/12/10 16:27:53;;;;;;;4.80;2.42;;;4.90;99.90;;;;;;6114343;23;20524;-94
2021/12/10 16:30:50;;;;;;;8.43;2.75;;;4.90;99.90;;;;;;6137968;23;20013;-92
2021/12/10 16:33:33;;;;;;;2.88;1.88;;;4.90;99.90;;;;;;6110634;23;20077;-93
2021/12/10 16:36:12;;;;;;;3.60;1.45;;;4.90;99.90;;;;;;6110869;23;20485;-93
2021/12/10 16:38:42;;;;;;;7.22;2.47;;;4.90;99.90;;;;;;6108050;23;20088;-93
2021/12/10 16:41:17;;;;;;;6.38;2.95;;;4.80;99.90;;;;;;6108747;23;20088;-91
2021/12/10 16:43:48;;;;;;;5.35;1.83;;;4.80;99.90;;;;;;6108585;23;20021;-93
2021/12/10 16:46:18;;;;;;;8.75;2.20;;;4.70;99.90;;;;;;6108010;23;20104;-92
2021/12/10 16:48:53;;;;;;;4.13;1.70;;;4.80;99.90;;;;;;6133573;23;20018;-94
2021/12/10 16:51:36;;;;;;;8.23;3.28;;;4.90;99.90;;;;;;6132409;23;20017;-91
2021/12/10 16:54:14;;;;;;;10.67;3.60;;;4.80;99.90;;;;;;6132270;23;20072;-92
2021/12/10 16:57:33;;;;;;;5.63;2.38;;;4.80;99.90;;;;;;6107930;23;20285;-92
2021/12/10 17:00:34;;;;;;;5.65;2.35;;;4.70;99.90;;;;;;6113378;22;20108;-87
2021/12/10 17:10:48;;;;;;;3.83;2.22;;;4.90;99.90;;;;;;6214116;23;20058;-93
2021/12/10 17:25:15;;;;;;;6.65;2.35;;;4.90;99.90;;;;;;6277172;22;20146;-94
2021/12/10 17:50:23;;;;;;;6.28;2.50;;;4.90;99.90;;;;;;6272924;22;20142;-91
2021/12/10 17:52:58;;;;;;;5.20;2.05;;;4.90;99.90;;;;;;6221626;23;20445;-94
2021/12/10 17:59:37;;;;;;;2.85;1.35;;;4.90;99.90;;;;;;6161651;23;20065;-94
2021/12/10 18:02:14;;;;;;;3.60;2.25;;;4.90;99.90;;;;;;6131902;23;20436;-92
2021/12/10 18:04:46;;;;;;;2.92;1.85;;;4.90;99.90;;;;;;6130946;23;20558;-95
2021/12/10 18:07:15;;;;;;;7.18;2.85;;;4.90;99.90;;;;;;6130186;23;20448;-90
2021/12/10 18:09:48;;;;;;;5.03;2.90;;;4.90;99.90;;;;;;6130457;23;20017;-92
2021/12/10 18:12:26;;;;;;;5.03;1.77;;;4.90;99.90;;;;;;6131039;23;20028;-92
2021/12/10 18:15:07;;;;;;;3.05;1.95;;;4.90;99.90;;;;;;6106725;23;20025;-93
2021/12/10 18:18:01;;;;;;;4.72;1.63;;;4.90;99.90;;;;;;6129153;23;20025;-90
2021/12/10 18:20:44;;;;;;;2.97;1.88;;;4.90;99.90;;;;;;6130746;23;20025;-90
2021/12/10 18:23:25;;;;;;;2.75;1.85;;;4.90;99.90;;;;;;6130873;23;20076;-92
2021/12/10 18:26:07;;;;;;;3.08;1.55;;;4.90;99.90;;;;;;6155411;23;20025;-90
2021/12/10 18:29:01;;;;;;;3.10;1.92;;;4.90;99.90;;;;;;6130639;23;20032;-92
2021/12/10 18:31:39;;;;;;;5.63;2.30;;;4.90;99.90;;;;;;6131865;23;20477;-90
2021/12/10 18:34:15;;;;;;;3.05;2.38;;;4.90;99.90;;;;;;6130728;23;20392;-93
2021/12/10 18:36:56;;;;;;;3.38;2.13;;;4.90;99.90;;;;;;6179764;23;20098;-91
2021/12/10 18:39:45;;;;;;;6.65;2.53;;;4.90;99.90;;;;;;6248415;23;20012;-91
2021/12/10 18:45:50;;;;;;;5.13;2.20;;;4.90;99.90;;;;;;6220890;23;20297;-90
2021/12/10 18:48:25;;;;;;;4.88;2.00;;;4.80;99.90;;;;;;6220195;23;20024;-91
2021/12/10 18:55:08;;;;;;;5.63;2.35;;;4.90;99.90;;;;;;6218777;23;20090;-92
2021/12/10 18:57:46;;;;;;;4.30;2.40;;;4.90;99.90;;;;;;6221920;23;20440;-90
2021/12/10 19:00:34;;;;;;;6.93;2.92;;;4.90;99.90;;;;;;6195696;23;20095;-94
2021/12/10 19:03:27;;;;;;;5.75;2.85;;;4.80;99.90;;;;;;6198041;23;20028;-91
2021/12/10 19:16:35;;;;;;;;;;;;;;;;;;;;;
2021/12/10 19:23:30;;;;;;;17.67;5.20;;;4.80;99.90;;;;;;6246595;22;20106;-91
2021/12/10 19:26:26;;;;;;;8.40;4.22;;;4.80;99.90;;;;;;6202024;23;20052;-91
2021/12/10 19:29:07;;;;;;;11.25;5.53;;;4.80;99.90;;;;;;6220319;23;20066;-92
2021/12/10 19:32:12;;;;;;;11.52;5.60;;;4.80;99.90;;;;;;6221113;23;20258;-93
2021/12/10 20:12:48;;;;;;;12.35;5.63;;;4.70;99.90;;;;;;6095750;23;20111;-90
2021/12/10 20:19:38;;;;;;;12.95;6.53;;;4.70;99.90;;;;;;6210985;23;20025;-91
2021/12/10 20:37:35;;;;;;;11.68;6.32;;;4.70;99.90;;;;;;6224810;22;20034;-91
2021/12/10 20:49:26;;;;;;;14.82;6.97;;;4.60;99.90;;;;;;6048432;23;20034;-92
2021/12/10 20:52:11;;;;;;;14.30;6.30;;;4.60;99.90;;;;;;6195728;23;20020;-93
2021/12/10 21:08:03;;;;;;;13.55;6.30;;;4.60;99.90;;;;;;6158349;23;20476;-93
2021/12/10 21:14:21;;;;;;;15.65;7.70;;;4.50;99.90;;;;;;6130916;23;20083;-93
2021/12/10 21:30:06;;;;;;;15.00;7.55;;;4.50;99.90;;;;;;5954291;24;20025;-93
2021/12/10 21:33:37;;;;;;;13.52;7.82;;;4.50;99.90;;;;;;6006552;23;20051;-92
2021/12/10 21:41:13;;;;;;;13.38;7.10;;;4.50;99.90;;;;;;6013054;23;20052;-94
2021/12/10 21:44:44;;;;;;;13.23;7.57;;;4.50;99.90;;;;;;6027447;23;20021;-94
2021/12/10 21:47:12;;;;;;;15.05;8.48;;;4.50;99.90;;;;;;6124760;23;20548;-93
2021/12/10 21:49:44;;;;;;;17.40;7.70;;;4.50;99.90;;;;;;6078202;23;20049;-93
2021/12/10 21:52:28;;;;;;;14.15;8.00;;;4.50;99.90;;;;;;6102630;23;20040;-93
2021/12/10 21:55:03;;;;;;;12.95;7.05;;;4.50;99.90;;;;;;6103498;23;20143;-93
2021/12/10 21:58:02;;;;;;;13.35;7.50;;;4.50;99.90;;;;;;6085174;23;20021;-92
2021/12/10 22:01:05;;;;;;;12.10;7.65;;;4.50;99.90;;;;;;6108030;23;20030;-92
2021/12/10 22:05:25;;;;;;;;;;;;;;;;;;;;;
2021/12/10 22:49:43;;;;;;;;;;;;;;;;;;;;;
2021/12/10 22:53:52;;;;;;;;;;;;;;;;;;;;;
2021/12/10 22:58:07;;;;;;;13.32;7.47;;;4.40;99.90;;;;;;6040271;23;20095;-93
